createdAt,value
2023-01-15T00:00:59.556Z,16.40
2023-01-15T00:07:30.658Z,18.40
2023-01-15T00:13:55.750Z,16.90
2023-01-15T00:17:13.584Z,15.50
2023-01-15T00:20:17.707Z,14.80
2023-01-15T00:23:56.922Z,17.40
2023-01-15T00:27:20.429Z,16.80
2023-01-15T00:30:31.466Z,17.10
2023-01-15T00:36:59.457Z,14.50
2023-01-15T00:39:59.561Z,13.20
2023-01-15T00:43:08.604Z,14.60
2023-01-15T00:46:05.816Z,14.20
2023-01-15T00:49:02.638Z,13.60
2023-01-15T00:52:05.672Z,13.80
2023-01-15T00:57:54.113Z,11.90
2023-01-15T01:00:42.877Z,14.10
2023-01-15T01:03:30.106Z,13.00
2023-01-15T01:06:09.313Z,12.00
2023-01-15T01:08:45.604Z,13.40
2023-01-15T01:11:30.362Z,11.80
2023-01-15T01:14:16.753Z,11.30
2023-01-15T01:17:04.366Z,11.20
2023-01-15T01:19:46.283Z,13.40
2023-01-15T01:22:39.702Z,11.00
2023-01-15T01:25:29.302Z,10.50
2023-01-15T01:28:15.343Z,12.50
2023-01-15T01:30:58.856Z,9.50
2023-01-15T01:33:42.965Z,10.80
2023-01-15T01:36:26.419Z,11.40
2023-01-15T01:39:15.321Z,13.40
2023-01-15T01:41:55.494Z,14.30
2023-01-15T01:47:28.648Z,11.60
2023-01-15T01:50:12.552Z,13.40
2023-01-15T01:53:12.143Z,9.70
2023-01-15T01:55:58.655Z,12.00
2023-01-15T01:58:40.688Z,11.10
2023-01-15T02:01:21.986Z,10.10
2023-01-15T02:04:02.994Z,11.40
2023-01-15T02:06:47.818Z,11.70
2023-01-15T02:09:28.461Z,10.10
2023-01-15T02:12:44.199Z,11.70
2023-01-15T02:15:32.855Z,9.80
2023-01-15T02:18:28.543Z,11.40
2023-01-15T02:21:41.173Z,8.60
2023-01-15T02:24:46.495Z,10.00
2023-01-15T02:27:21.271Z,9.10
2023-01-15T02:30:33.155Z,11.10
2023-01-15T02:33:41.820Z,9.80
2023-01-15T02:36:38.063Z,10.00
2023-01-15T02:39:32.311Z,12.20
2023-01-15T02:42:17.311Z,10.20
2023-01-15T02:45:01.568Z,11.30
2023-01-15T02:47:43.442Z,10.60
2023-01-15T02:50:27.415Z,10.50
2023-01-15T02:53:12.271Z,11.40
2023-01-15T02:55:54.028Z,12.10
2023-01-15T02:58:46.289Z,10.80
2023-01-15T03:01:32.251Z,10.70
2023-01-15T03:04:11.979Z,9.60
2023-01-15T03:07:31.956Z,13.10
2023-01-15T03:10:15.092Z,11.60
2023-01-15T03:13:10.418Z,14.00
2023-01-15T03:16:45.959Z,8.40
2023-01-15T03:19:33.835Z,11.40
2023-01-15T03:22:23.881Z,10.60
2023-01-15T03:25:16.290Z,9.60
2023-01-15T03:28:03.702Z,12.00
2023-01-15T03:30:45.158Z,10.90
2023-01-15T03:33:27.560Z,11.30
2023-01-15T03:36:18.067Z,10.80
2023-01-15T03:38:54.192Z,11.20
2023-01-15T03:42:22.862Z,11.60
2023-01-15T03:45:18.923Z,9.20
2023-01-15T03:48:11.186Z,11.10
2023-01-15T03:51:23.896Z,13.20
2023-01-15T03:54:14.266Z,9.60
2023-01-15T03:57:17.203Z,8.40
2023-01-15T04:00:01.082Z,10.70
2023-01-15T04:02:37.993Z,11.50
2023-01-15T04:05:10.716Z,9.70
2023-01-15T04:07:48.444Z,8.20
2023-01-15T04:10:24.145Z,9.90
2023-01-15T04:13:05.847Z,8.10
2023-01-15T04:15:52.084Z,9.10
2023-01-15T04:18:30.438Z,9.40
2023-01-15T04:21:10.847Z,10.00
2023-01-15T04:23:52.948Z,10.80
2023-01-15T04:26:35.283Z,7.30
2023-01-15T04:29:16.061Z,10.20
2023-01-15T04:32:00.549Z,6.90
2023-01-15T04:34:43.814Z,9.60
2023-01-15T04:37:21.767Z,8.40
2023-01-15T04:40:01.622Z,9.20
2023-01-15T04:42:55.000Z,7.60
2023-01-15T04:45:30.318Z,7.80
2023-01-15T04:48:09.104Z,7.00
2023-01-15T04:50:45.912Z,10.40
2023-01-15T04:53:24.234Z,7.50
2023-01-15T04:56:11.842Z,8.50
2023-01-15T04:58:54.493Z,7.10
2023-01-15T05:01:33.188Z,6.90
2023-01-15T05:04:15.841Z,6.10
2023-01-15T05:06:56.883Z,7.50
2023-01-15T05:09:40.945Z,6.40
2023-01-15T05:12:30.777Z,6.40
2023-01-15T05:15:13.595Z,5.20
2023-01-15T05:17:54.475Z,6.20
2023-01-15T05:20:30.922Z,8.00
2023-01-15T05:23:08.380Z,6.60
2023-01-15T05:25:51.343Z,6.50
2023-01-15T05:28:34.872Z,5.80
2023-01-15T05:31:16.865Z,5.60
2023-01-15T05:33:52.614Z,6.60
2023-01-15T05:36:26.862Z,4.30
2023-01-15T05:39:02.565Z,4.80
2023-01-15T05:41:59.063Z,5.60
2023-01-15T05:44:41.436Z,6.00
2023-01-15T05:47:23.154Z,4.90
2023-01-15T05:50:03.574Z,4.50
2023-01-15T05:52:42.432Z,4.50
2023-01-15T05:55:20.435Z,4.30
2023-01-15T05:57:56.020Z,5.10
2023-01-15T06:00:31.690Z,3.10
2023-01-15T06:03:06.748Z,5.70
2023-01-15T06:05:40.886Z,4.90
2023-01-15T06:08:16.606Z,4.70
2023-01-15T06:10:53.587Z,4.00
2023-01-15T06:13:28.546Z,3.20
2023-01-15T06:16:02.876Z,6.20
2023-01-15T06:18:39.774Z,4.30
2023-01-15T06:21:15.548Z,3.90
2023-01-15T06:24:02.703Z,5.10
2023-01-15T06:26:48.276Z,4.20
2023-01-15T06:29:31.503Z,3.40
2023-01-15T06:32:11.864Z,4.00
2023-01-15T06:34:51.688Z,4.90
2023-01-15T06:37:33.825Z,4.50
2023-01-15T06:40:37.484Z,4.40
2023-01-15T06:43:41.707Z,4.10
2023-01-15T06:46:49.053Z,3.50
2023-01-15T06:49:32.958Z,3.80
2023-01-15T06:52:22.683Z,3.00
2023-01-15T06:55:10.214Z,3.90
2023-01-15T06:57:54.214Z,5.10
2023-01-15T07:00:30.635Z,3.40
2023-01-15T07:03:31.010Z,4.40
2023-01-15T07:06:19.896Z,4.60
2023-01-15T07:08:57.010Z,4.90
2023-01-15T07:11:59.152Z,5.50
2023-01-15T07:14:42.438Z,4.40
2023-01-15T07:17:41.033Z,2.90
2023-01-15T07:20:24.637Z,3.30
2023-01-15T07:23:16.850Z,4.40
2023-01-15T07:26:18.785Z,5.10
2023-01-15T07:29:08.920Z,3.30
2023-01-15T07:31:54.647Z,3.90
2023-01-15T07:34:34.933Z,3.30
2023-01-15T07:37:30.161Z,3.30
2023-01-15T07:44:58.904Z,4.10
2023-01-15T07:48:08.969Z,4.00
2023-01-15T07:55:35.133Z,4.70
2023-01-15T07:59:01.692Z,5.70
2023-01-15T08:13:19.957Z,3.00
2023-01-15T08:16:50.847Z,4.00
2023-01-15T08:19:44.169Z,3.30
2023-01-15T08:22:29.181Z,3.90
2023-01-15T08:25:20.387Z,3.70
2023-01-15T08:28:21.319Z,4.00
2023-01-15T08:31:16.035Z,4.80
2023-01-15T08:34:06.506Z,3.90
2023-01-15T08:37:09.597Z,4.30
2023-01-15T08:40:01.589Z,4.00
2023-01-15T08:42:41.793Z,3.70
2023-01-15T08:45:23.039Z,6.50
2023-01-15T08:48:13.060Z,5.10
2023-01-15T08:50:55.962Z,4.10
2023-01-15T08:53:34.843Z,3.50
2023-01-15T08:56:33.799Z,4.40
2023-01-15T08:59:25.849Z,4.00
2023-01-15T09:02:14.085Z,5.00
2023-01-15T09:11:32.700Z,3.20
2023-01-15T09:14:57.129Z,3.50
2023-01-15T09:18:24.395Z,5.10
2023-01-15T09:22:22.623Z,4.10
2023-01-15T09:25:37.073Z,4.10
2023-01-15T09:35:52.264Z,4.60
2023-01-15T09:38:58.059Z,4.30
2023-01-15T09:42:36.904Z,4.10
2023-01-15T09:45:58.962Z,4.00
2023-01-15T09:49:32.634Z,4.10
2023-01-15T10:05:50.660Z,4.50
2023-01-15T10:13:52.502Z,6.10
2023-01-15T17:53:37.383Z,12.40
2023-01-15T17:56:33.119Z,11.90
